Montevideo, MN

7:05 PM CDT on April 21, 2018 (GMT -0500)
Montevideo-Chippewa County

Weather History for KMVE - November, 2012

Change the Weather History Date:

Thursday, November 8, 2012

  Actual Average Record
Temperature  
Mean Temperature 43 °F -  
Max Temperature 53 °F 46 °F 80 °F (1999)
Min Temperature 33 °F 25 °F 3 °F (1991)
Degree Days  
Heating Degree Days 22    
Moisture  
Dew Point 35 °F    
Average Humidity 82    
Maximum Humidity 100    
Minimum Humidity 54    
Precipitation  
Precipitation 0.00 in - - ()
Sea Level Pressure  
Sea Level Pressure 29.94 in    
Wind  
Wind Speed 11 mph (NNE)    
Max Wind Speed 17 mph    
Max Gust Speed 23 mph    
Visibility 10 miles    
Events      
Averages and records for this station are not official NWS values.
T = Trace of Precipitation, MM = Missing Value Source: NWS Daily Summary

Daily Weather History Graph

Daily Weather History Graph

Search for Another Location

Airport or City:

Astronomy

Nov. 08, 2012 Rise Set
Actual Time 7:11 AM CST 5:01 PM CST
Civil Twilight 6:40 AM CST 5:32 PM CST
Nautical Twilight 6:05 AM CST 6:07 PM CST
Astronomical Twilight 5:30 AM CST 6:41 PM CST
Moon 12:52 AM CST (11/8) 1:56 PM CST (11/8)
Length of Visible Light 10h 51m
Length of Day
9h 49m
Waning Crescent, 32% of the Moon is Illuminated
Nov 8
Waning Crescent
Nov 13
New
Nov 20
First Quarter
Nov 28
Full
Dec 6
Last Quarter

Hourly Weather History & Observations

Time (CST) Temp. Windchill Dew Point Humidity Pressure Visibility Wind Dir Wind Speed Gust Speed Precip Events Conditions
12:14 AM 37.4 °F 28.5 °F 33.8 °F 87% 29.93 in 10.0 mi South 15.0 mph 21.9 mph N/A   Clear
12:34 AM 37.4 °F 28.2 °F 33.8 °F 87% 29.93 in 10.0 mi South 16.1 mph 20.7 mph N/A   Clear
12:54 AM 37.4 °F 28.5 °F 33.8 °F 87% 29.92 in 10.0 mi South 15.0 mph 20.7 mph N/A   Clear
1:14 AM 37.4 °F 29.3 °F 33.8 °F 87% 29.91 in 10.0 mi South 12.7 mph 18.4 mph N/A   Clear
1:34 AM 37.4 °F 28.5 °F 33.8 °F 87% 29.90 in 10.0 mi South 15.0 mph - N/A   Clear
1:54 AM 39.2 °F 30.5 °F 33.8 °F 81% 29.89 in 10.0 mi South 16.1 mph 20.7 mph N/A   Clear
2:14 AM 37.4 °F 28.2 °F 33.8 °F 87% 29.88 in 10.0 mi South 16.1 mph 23.0 mph N/A   Clear
2:34 AM 37.4 °F 28.2 °F 33.8 °F 87% 29.88 in 10.0 mi South 16.1 mph 23.0 mph N/A   Clear
2:54 AM 37.4 °F 28.9 °F 33.8 °F 87% 29.87 in 10.0 mi South 13.8 mph 21.9 mph N/A   Clear
3:13 AM 37.4 °F 29.3 °F 33.8 °F 87% 29.87 in 10.0 mi South 12.7 mph 20.7 mph N/A   Clear
3:34 AM 37.4 °F 28.9 °F 33.8 °F 87% 29.86 in 10.0 mi South 13.8 mph 17.3 mph N/A   Clear
3:54 AM 37.4 °F 29.3 °F 33.8 °F 87% 29.86 in 10.0 mi South 12.7 mph 17.3 mph N/A   Clear
4:13 AM 37.4 °F 30.3 °F 33.8 °F 87% 29.86 in 10.0 mi South 10.4 mph 17.3 mph N/A   Clear
4:34 AM 35.6 °F 28.6 °F 33.8 °F 93% 29.86 in 10.0 mi South 9.2 mph - N/A   Clear
4:54 AM 35.6 °F 28.0 °F 33.8 °F 93% 29.86 in 10.0 mi South 10.4 mph - N/A   Clear
5:14 AM 35.6 °F 28.6 °F 33.8 °F 93% 29.87 in 10.0 mi South 9.2 mph - N/A   Clear
5:34 AM 35.6 °F 29.2 °F 33.8 °F 93% 29.86 in 10.0 mi South 8.1 mph - N/A   Clear
5:54 AM 35.6 °F 29.2 °F 33.8 °F 93% 29.86 in 10.0 mi South 8.1 mph - N/A   Clear
6:14 AM 35.6 °F 29.9 °F 33.8 °F 93% 29.87 in 10.0 mi South 6.9 mph - N/A   Clear
6:54 AM 33.8 °F 28.6 °F 33.8 °F 100% 29.88 in 10.0 mi South 5.8 mph - N/A   Clear
7:14 AM 35.6 °F 30.7 °F 33.8 °F 93% 29.89 in 10.0 mi South 5.8 mph - N/A   Clear
7:34 AM 35.6 °F 30.7 °F 33.8 °F 93% 29.88 in 10.0 mi South 5.8 mph - N/A   Clear
7:54 AM 35.6 °F 30.7 °F 33.8 °F 93% 29.89 in 10.0 mi South 5.8 mph - N/A   Clear
8:14 AM 37.4 °F 32.8 °F 33.8 °F 87% 29.90 in 10.0 mi South 5.8 mph - N/A   Clear
8:33 AM 37.4 °F 32.8 °F 33.8 °F 87% 29.91 in 10.0 mi South 5.8 mph - N/A   Clear
8:54 AM 39.2 °F 35.9 °F 33.8 °F 81% 29.90 in 10.0 mi South 4.6 mph - N/A   Clear
9:14 AM 41.0 °F 37.1 °F 33.8 °F 76% 29.91 in 10.0 mi SSW 5.8 mph - N/A   Clear
9:34 AM 42.8 °F 38.0 °F 35.6 °F 76% 29.91 in 10.0 mi SW 8.1 mph - N/A   Clear
9:54 AM 42.8 °F 38.6 °F 35.6 °F 76% 29.92 in 10.0 mi SW 6.9 mph - N/A   Clear
10:34 AM 46.4 °F 43.5 °F 35.6 °F 66% 29.92 in 10.0 mi WNW 5.8 mph - N/A   Clear
10:54 AM 48.2 °F - 35.6 °F 62% 29.92 in 10.0 mi WNW 6.9 mph - N/A   Clear
11:14 AM 48.2 °F - 35.6 °F 62% 29.91 in 10.0 mi NNW 4.6 mph - N/A   Clear
11:34 AM 50.0 °F - 35.6 °F 58% 29.91 in 10.0 mi NNW 5.8 mph - N/A   Clear
11:54 AM 50.0 °F - 35.6 °F 58% 29.91 in 10.0 mi North 8.1 mph - N/A   Clear
12:14 PM 51.8 °F - 35.6 °F 54% 29.91 in 10.0 mi North 6.9 mph - N/A   Clear
12:34 PM 51.8 °F - 35.6 °F 54% 29.91 in 10.0 mi NNE 6.9 mph - N/A   Clear
12:54 PM 51.8 °F - 35.6 °F 54% 29.92 in 10.0 mi NNE 10.4 mph - N/A   Clear
1:14 PM 53.6 °F - 37.4 °F 54% 29.92 in 10.0 mi North 8.1 mph - N/A   Clear
1:34 PM 53.6 °F - 37.4 °F 54% 29.92 in 10.0 mi NNE 11.5 mph 16.1 mph N/A   Clear
1:54 PM 53.6 °F - 37.4 °F 54% 29.92 in 10.0 mi North 11.5 mph - N/A   Clear
2:14 PM 53.6 °F - 39.2 °F 58% 29.93 in 10.0 mi North 17.3 mph - N/A   Clear
2:34 PM 51.8 °F - 39.2 °F 62% 29.94 in 10.0 mi NNE 15.0 mph - N/A   Clear
2:54 PM 51.8 °F - 39.2 °F 62% 29.95 in 10.0 mi NNE 12.7 mph - N/A   Clear
3:14 PM 50.0 °F - 39.2 °F 66% 29.95 in 10.0 mi NNE 13.8 mph 20.7 mph N/A   Clear
3:34 PM 48.2 °F - 39.2 °F 71% 29.96 in 10.0 mi North 16.1 mph - N/A   Clear
3:54 PM 46.4 °F 40.4 °F 39.2 °F 76% 29.97 in 10.0 mi North 13.8 mph 20.7 mph N/A   Clear
4:14 PM 44.6 °F 38.1 °F 39.2 °F 81% 29.97 in 10.0 mi North 13.8 mph 19.6 mph N/A   Clear
4:34 PM 44.6 °F 38.8 °F 39.2 °F 81% 29.98 in 10.0 mi North 11.5 mph 18.4 mph N/A   Clear
4:54 PM 42.8 °F 35.4 °F 39.2 °F 87% 29.98 in 10.0 mi North 15.0 mph 19.6 mph N/A   Clear
5:14 PM 42.8 °F 36.2 °F 37.4 °F 81% 29.99 in 10.0 mi North 12.7 mph - N/A   Clear
5:34 PM 41.0 °F 33.9 °F 37.4 °F 87% 29.99 in 10.0 mi North 12.7 mph - N/A   Clear
5:54 PM 39.2 °F 32.0 °F 37.4 °F 93% 30.00 in 10.0 mi North 11.5 mph - N/A   Clear
6:13 PM 39.2 °F 32.0 °F 37.4 °F 93% 30.01 in 10.0 mi NNE 11.5 mph - N/A   Clear
6:34 PM 41.0 °F 34.3 °F 37.4 °F 87% 30.01 in 10.0 mi NNE 11.5 mph - N/A   Mostly Cloudy
6:53 PM 41.0 °F 33.1 °F 37.4 °F 87% 30.02 in 10.0 mi NNE 15.0 mph - N/A   Overcast
7:14 PM 39.2 °F 32.5 °F 37.4 °F 93% 30.02 in 10.0 mi NNE 10.4 mph - N/A   Overcast
7:34 PM 39.2 °F 33.6 °F 35.6 °F 87% 30.02 in 10.0 mi NNE 8.1 mph - N/A   Scattered Clouds
7:54 PM 39.2 °F 33.0 °F 35.6 °F 87% 30.02 in 10.0 mi NNE 9.2 mph - N/A   Mostly Cloudy
8:14 PM 39.2 °F 33.0 °F 35.6 °F 87% 30.02 in 10.0 mi NNE 9.2 mph - N/A   Overcast
8:34 PM 37.4 °F 32.1 °F 35.6 °F 93% 30.02 in 10.0 mi NNE 6.9 mph - N/A   Mostly Cloudy
8:54 PM 37.4 °F 32.8 °F 35.6 °F 93% 30.03 in 10.0 mi NNE 5.8 mph - N/A   Clear
9:14 PM 35.6 °F 30.7 °F 35.6 °F 100% 30.03 in 10.0 mi North 5.8 mph - N/A   Clear
9:34 PM 35.6 °F 30.7 °F 35.6 °F 100% 30.04 in 10.0 mi North 5.8 mph - N/A   Clear
9:54 PM 35.6 °F 30.7 °F 35.6 °F 100% 30.04 in 10.0 mi North 5.8 mph - N/A   Clear
10:14 PM 35.6 °F 29.9 °F 35.6 °F 100% 30.04 in 10.0 mi North 6.9 mph - N/A   Clear
10:34 PM 35.6 °F 29.9 °F 33.8 °F 93% 30.03 in 10.0 mi NNE 6.9 mph - N/A   Clear
10:54 PM 35.6 °F 30.7 °F 33.8 °F 93% 30.03 in 10.0 mi NE 5.8 mph - N/A   Clear
11:14 PM 35.6 °F 30.7 °F 33.8 °F 93% 30.03 in 10.0 mi NNE 5.8 mph - N/A   Clear
11:34 PM 35.6 °F 29.9 °F 33.8 °F 93% 30.03 in 7.0 mi NE 6.9 mph - N/A   Clear
11:54 PM 33.8 °F 27.0 °F 33.8 °F 100% 30.03 in 7.0 mi NE 8.1 mph - N/A   Clear